createdAt,value
2023-10-21T00:00:31.931Z,100.00
2023-10-21T00:03:03.946Z,100.00
2023-10-21T00:05:35.736Z,100.00
2023-10-21T00:08:07.668Z,100.00
2023-10-21T00:10:39.686Z,100.00
2023-10-21T00:13:11.726Z,100.00
2023-10-21T00:15:43.539Z,100.00
2023-10-21T00:18:15.395Z,100.00
2023-10-21T00:20:47.228Z,100.00
2023-10-21T00:23:19.017Z,100.00
2023-10-21T00:25:50.878Z,100.00
2023-10-21T00:28:22.648Z,100.00
2023-10-21T00:30:54.411Z,100.00
2023-10-21T00:33:26.225Z,100.00
2023-10-21T00:35:58.132Z,100.00
2023-10-21T00:38:29.920Z,100.00
2023-10-21T00:41:01.774Z,100.00
2023-10-21T00:43:34.766Z,100.00
2023-10-21T00:46:17.252Z,100.00
2023-10-21T00:48:50.186Z,100.00
2023-10-21T00:51:22.739Z,100.00
2023-10-21T00:53:57.593Z,100.00
2023-10-21T00:56:29.707Z,100.00
2023-10-21T01:04:29.083Z,100.00
2023-10-21T01:07:01.217Z,100.00
2023-10-21T01:09:33.009Z,100.00
2023-10-21T01:12:05.013Z,100.00
2023-10-21T01:14:36.812Z,100.00
2023-10-21T01:17:09.759Z,100.00
2023-10-21T01:19:41.518Z,100.00
2023-10-21T01:22:13.405Z,100.00
2023-10-21T01:24:45.154Z,100.00
2023-10-21T01:27:17.798Z,100.00
2023-10-21T01:29:49.683Z,100.00
2023-10-21T01:32:21.564Z,100.00
2023-10-21T01:34:53.368Z,100.00
2023-10-21T01:37:25.249Z,100.00
2023-10-21T01:39:57.097Z,100.00
2023-10-21T01:42:28.978Z,100.00
2023-10-21T01:45:00.902Z,100.00
2023-10-21T01:47:33.135Z,100.00
2023-10-21T01:50:09.812Z,100.00
2023-10-21T01:52:41.660Z,100.00
2023-10-21T01:55:13.566Z,100.00
2023-10-21T01:57:45.802Z,100.00
2023-10-21T02:00:20.441Z,100.00
2023-10-21T02:02:57.034Z,100.00
2023-10-21T02:05:29.029Z,100.00
2023-10-21T02:08:00.819Z,100.00
2023-10-21T02:10:32.602Z,100.00
2023-10-21T02:13:04.504Z,100.00
2023-10-21T02:15:37.753Z,100.00
2023-10-21T02:18:10.521Z,100.00
2023-10-21T02:20:42.830Z,100.00
2023-10-21T02:23:14.793Z,100.00
2023-10-21T02:25:46.555Z,100.00
2023-10-21T02:28:18.338Z,100.00
2023-10-21T02:30:50.636Z,100.00
2023-10-21T02:33:25.757Z,100.00
2023-10-21T02:35:57.603Z,100.00
2023-10-21T02:38:29.407Z,100.00
2023-10-21T02:41:01.192Z,100.00
2023-10-21T02:43:33.691Z,100.00
2023-10-21T02:46:10.034Z,100.00
2023-10-21T02:48:42.165Z,100.00
2023-10-21T02:51:19.032Z,100.00
2023-10-21T02:53:50.955Z,100.00
2023-10-21T02:56:22.832Z,100.00
2023-10-21T02:58:54.645Z,100.00
2023-10-21T03:01:26.953Z,100.00
2023-10-21T03:03:58.981Z,100.00
2023-10-21T03:06:30.833Z,100.00
2023-10-21T03:09:02.678Z,100.00
2023-10-21T03:11:34.490Z,100.00
2023-10-21T03:14:06.377Z,100.00
2023-10-21T03:16:38.501Z,100.00
2023-10-21T03:19:10.371Z,100.00
2023-10-21T03:21:42.157Z,100.00
2023-10-21T03:24:13.930Z,100.00
2023-10-21T03:26:45.737Z,100.00
2023-10-21T03:29:17.515Z,100.00
2023-10-21T03:31:49.438Z,100.00
2023-10-21T03:34:21.202Z,100.00
2023-10-21T03:36:52.992Z,100.00
2023-10-21T03:39:24.813Z,100.00
2023-10-21T03:41:56.612Z,100.00
2023-10-21T03:44:28.398Z,100.00
2023-10-21T03:47:00.204Z,100.00
2023-10-21T03:49:31.991Z,100.00
2023-10-21T03:52:04.783Z,100.00
2023-10-21T03:54:36.711Z,100.00
2023-10-21T03:57:09.292Z,99.55
2023-10-21T03:59:41.095Z,99.87
2023-10-21T04:02:12.853Z,100.00
2023-10-21T04:04:44.614Z,100.00
2023-10-21T04:07:16.570Z,100.00
2023-10-21T04:09:48.361Z,100.00
2023-10-21T04:12:20.191Z,100.00
2023-10-21T04:14:52.013Z,100.00
2023-10-21T04:17:23.837Z,100.00
2023-10-21T04:19:55.626Z,100.00
2023-10-21T04:22:27.457Z,100.00
2023-10-21T04:24:59.247Z,100.00
2023-10-21T04:27:31.092Z,100.00
2023-10-21T04:30:04.791Z,100.00
2023-10-21T04:32:37.650Z,100.00
2023-10-21T04:35:10.388Z,100.00
2023-10-21T04:37:42.647Z,100.00
2023-10-21T04:40:14.844Z,100.00
2023-10-21T04:42:46.835Z,100.00
2023-10-21T04:45:20.109Z,100.00
2023-10-21T04:47:52.749Z,100.00
2023-10-21T04:50:27.137Z,100.00
2023-10-21T04:53:01.397Z,100.00
2023-10-21T04:55:33.192Z,100.00
2023-10-21T04:58:05.702Z,100.00
2023-10-21T05:00:37.661Z,100.00
2023-10-21T05:03:09.619Z,100.00
2023-10-21T05:05:43.730Z,100.00
2023-10-21T05:08:15.816Z,100.00
2023-10-21T05:10:47.580Z,100.00
2023-10-21T05:13:19.342Z,100.00
2023-10-21T05:15:51.743Z,100.00
2023-10-21T05:18:23.542Z,100.00
2023-10-21T05:20:55.447Z,100.00
2023-10-21T05:23:27.501Z,100.00
2023-10-21T05:26:00.099Z,99.89
2023-10-21T05:28:32.659Z,99.33
2023-10-21T05:31:04.832Z,99.91
2023-10-21T05:33:36.835Z,100.00
2023-10-21T05:36:09.041Z,100.00
2023-10-21T05:38:41.014Z,100.00
2023-10-21T05:41:12.792Z,100.00
2023-10-21T05:43:44.678Z,100.00
2023-10-21T05:46:16.705Z,100.00
2023-10-21T05:48:48.613Z,100.00
2023-10-21T05:51:20.514Z,100.00
2023-10-21T05:53:53.247Z,100.00
2023-10-21T05:56:25.113Z,100.00
2023-10-21T05:58:56.932Z,100.00
2023-10-21T06:01:28.805Z,99.85
2023-10-21T06:04:00.788Z,100.00
2023-10-21T06:06:32.764Z,100.00
2023-10-21T06:09:05.542Z,100.00
2023-10-21T06:11:37.505Z,100.00
2023-10-21T06:14:09.273Z,100.00
2023-10-21T06:16:41.039Z,99.91
2023-10-21T06:19:12.827Z,100.00
2023-10-21T06:21:44.906Z,99.64
2023-10-21T06:24:16.796Z,99.79
2023-10-21T06:26:48.712Z,100.00
2023-10-21T06:29:20.542Z,100.00
2023-10-21T06:31:52.464Z,100.00
2023-10-21T06:34:24.319Z,100.00
2023-10-21T06:36:56.139Z,100.00
2023-10-21T06:39:28.004Z,99.11
2023-10-21T06:41:59.873Z,99.51
2023-10-21T06:44:31.766Z,98.85
2023-10-21T06:47:03.681Z,98.72
2023-10-21T06:49:35.589Z,97.91
2023-10-21T06:52:07.474Z,97.48
2023-10-21T06:54:39.710Z,97.54
2023-10-21T06:57:11.654Z,97.02
2023-10-21T06:59:43.518Z,96.51
2023-10-21T07:02:15.856Z,96.38
2023-10-21T07:04:47.803Z,95.69
2023-10-21T07:07:19.715Z,95.92
2023-10-21T07:09:51.663Z,96.32
2023-10-21T07:12:23.535Z,96.34
2023-10-21T07:14:55.865Z,96.33
2023-10-21T07:17:27.678Z,95.78
2023-10-21T07:19:59.828Z,95.65
2023-10-21T07:22:31.673Z,94.62
2023-10-21T07:25:03.505Z,96.15
2023-10-21T07:27:35.290Z,96.02
2023-10-21T07:30:07.865Z,96.96
2023-10-21T07:32:39.889Z,96.50
2023-10-21T07:35:11.848Z,98.11
2023-10-21T07:37:46.455Z,97.56
2023-10-21T07:40:18.324Z,97.26
2023-10-21T07:42:50.907Z,97.76
2023-10-21T07:45:23.555Z,97.83
2023-10-21T07:47:55.670Z,97.70
2023-10-21T07:50:28.195Z,97.73
2023-10-21T07:53:00.060Z,97.33
2023-10-21T07:55:31.901Z,97.60
2023-10-21T07:58:03.879Z,97.12
2023-10-21T08:00:35.778Z,96.71
2023-10-21T08:03:07.710Z,96.46
2023-10-21T08:05:39.871Z,96.02
2023-10-21T08:08:12.096Z,95.71
2023-10-21T08:10:43.924Z,95.35
2023-10-21T08:13:16.504Z,95.19
2023-10-21T08:15:49.182Z,95.09
2023-10-21T08:18:21.122Z,95.14
2023-10-21T08:20:53.585Z,94.99
2023-10-21T08:23:25.386Z,95.10
2023-10-21T08:25:59.161Z,94.47
2023-10-21T08:28:31.514Z,95.19
2023-10-21T08:31:03.330Z,95.46
2023-10-21T08:33:35.235Z,95.95
2023-10-21T08:36:16.217Z,95.70
2023-10-21T08:38:48.994Z,95.30
2023-10-21T08:41:21.208Z,94.96
2023-10-21T08:43:53.388Z,95.01
2023-10-21T08:46:26.744Z,94.59
2023-10-21T08:49:00.236Z,94.20
2023-10-21T08:51:34.505Z,94.65
2023-10-21T08:54:07.433Z,94.61
2023-10-21T08:56:39.419Z,94.09
2023-10-21T08:59:11.283Z,94.87
2023-10-21T09:01:45.668Z,94.95
2023-10-21T09:04:20.233Z,94.56
2023-10-21T09:07:00.689Z,94.95
2023-10-21T09:09:32.576Z,94.21
2023-10-21T09:12:12.140Z,93.94
2023-10-21T09:15:01.539Z,93.92
2023-10-21T09:17:46.886Z,93.69
2023-10-21T09:20:20.316Z,93.65
2023-10-21T09:22:56.669Z,93.57
2023-10-21T09:25:28.547Z,94.06
2023-10-21T09:28:00.556Z,93.55
2023-10-21T09:30:33.837Z,92.98
2023-10-21T09:33:06.946Z,92.16
2023-10-21T09:35:39.539Z,93.20
2023-10-21T09:38:18.771Z,93.33
2023-10-21T09:40:50.650Z,93.57
2023-10-21T09:43:23.978Z,93.49
2023-10-21T09:45:58.694Z,92.84
2023-10-21T09:48:32.302Z,93.12
2023-10-21T09:51:10.688Z,93.04
2023-10-21T09:53:48.786Z,93.55
2023-10-21T09:56:21.659Z,93.13
2023-10-21T09:58:55.669Z,92.83
2023-10-21T10:01:27.815Z,92.40
2023-10-21T10:04:02.233Z,92.72
2023-10-21T10:06:35.666Z,91.49
2023-10-21T10:09:08.816Z,91.80
2023-10-21T10:11:41.381Z,88.74
2023-10-21T10:14:13.161Z,89.04
2023-10-21T10:16:46.452Z,88.01
2023-10-21T10:19:37.589Z,87.39
2023-10-21T10:22:30.221Z,87.91
2023-10-21T10:25:11.850Z,88.54
2023-10-21T10:27:43.847Z,88.71
2023-10-21T10:30:21.329Z,88.01
2023-10-21T10:32:54.190Z,87.95
2023-10-21T10:35:33.509Z,87.84
2023-10-21T10:38:27.345Z,86.70
2023-10-21T10:41:16.359Z,87.26
2023-10-21T10:44:03.176Z,87.29
2023-10-21T10:46:37.711Z,86.63
2023-10-21T10:49:11.697Z,86.69
2023-10-21T10:51:45.069Z,86.41
2023-10-21T10:54:19.394Z,86.51
2023-10-21T10:56:51.686Z,86.68
2023-10-21T10:59:25.654Z,86.55
2023-10-21T11:01:58.884Z,86.30
2023-10-21T11:04:34.044Z,87.28
2023-10-21T11:07:06.127Z,86.50
2023-10-21T11:09:38.471Z,85.80
2023-10-21T11:12:11.452Z,86.18
2023-10-21T11:14:43.659Z,85.34
2023-10-21T11:17:15.779Z,85.14
2023-10-21T11:19:47.724Z,84.07
2023-10-21T11:22:26.849Z,84.32
2023-10-21T11:24:58.814Z,83.70
2023-10-21T11:27:31.030Z,83.28
2023-10-21T11:30:09.103Z,84.41
2023-10-21T11:32:41.036Z,84.46
2023-10-21T11:35:14.918Z,84.65
2023-10-21T11:37:48.623Z,84.37
2023-10-21T11:40:20.529Z,84.19
2023-10-21T11:42:59.564Z,84.63
2023-10-21T11:45:32.277Z,84.47
2023-10-21T11:48:10.595Z,84.77
2023-10-21T11:50:45.708Z,84.50
2023-10-21T11:53:17.686Z,84.88
2023-10-21T11:55:52.968Z,84.82
2023-10-21T11:58:29.408Z,85.89
2023-10-21T12:01:19.622Z,84.88
2023-10-21T12:03:57.605Z,86.02
2023-10-21T12:06:48.428Z,85.41
2023-10-21T12:09:38.692Z,85.85
2023-10-21T12:12:19.738Z,85.54
2023-10-21T12:15:10.078Z,85.52
2023-10-21T12:17:41.931Z,85.15
2023-10-21T12:20:46.240Z,85.22
2023-10-21T12:23:36.616Z,84.92
2023-10-21T12:26:27.217Z,81.75
2023-10-21T12:29:33.782Z,83.40
2023-10-21T12:32:24.170Z,83.64
2023-10-21T12:35:14.307Z,84.39
2023-10-21T12:38:04.458Z,84.25
2023-10-21T12:40:39.632Z,85.06
2023-10-21T12:43:34.192Z,85.84
2023-10-21T12:46:32.678Z,86.35
2023-10-21T12:49:25.327Z,86.06
2023-10-21T12:51:59.902Z,85.59
2023-10-21T12:54:32.847Z,85.51
2023-10-21T12:57:05.476Z,85.24
2023-10-21T12:59:37.312Z,85.39
2023-10-21T13:02:12.294Z,85.72
2023-10-21T13:04:44.310Z,85.39
2023-10-21T13:07:16.243Z,86.06
2023-10-21T13:09:48.149Z,85.98
2023-10-21T13:12:20.032Z,85.73
2023-10-21T13:14:53.611Z,85.69
2023-10-21T13:17:25.414Z,85.62
2023-10-21T13:19:57.238Z,85.45
2023-10-21T13:22:29.027Z,85.95
2023-10-21T13:25:17.791Z,85.92
2023-10-21T13:27:50.826Z,85.84
2023-10-21T13:30:22.771Z,86.67
2023-10-21T13:32:56.799Z,86.54
2023-10-21T13:35:29.636Z,86.66
2023-10-21T13:38:01.866Z,87.31
2023-10-21T13:40:33.796Z,86.91
2023-10-21T13:43:06.395Z,86.25
2023-10-21T13:45:38.461Z,87.56
2023-10-21T13:48:10.979Z,87.06
2023-10-21T13:50:43.205Z,87.90
2023-10-21T13:53:27.389Z,86.91
2023-10-21T13:55:59.468Z,87.43
2023-10-21T13:58:31.726Z,87.14
2023-10-21T14:01:07.583Z,87.04
2023-10-21T14:03:41.023Z,87.19
2023-10-21T14:06:13.236Z,87.47
2023-10-21T14:08:45.185Z,87.48
2023-10-21T14:11:17.419Z,87.61
2023-10-21T14:13:49.400Z,87.37
2023-10-21T14:16:21.711Z,87.48
2023-10-21T14:18:53.725Z,88.08
2023-10-21T14:21:25.776Z,88.09
2023-10-21T14:23:57.642Z,88.64
2023-10-21T14:26:29.705Z,88.40
2023-10-21T14:29:01.641Z,88.75
2023-10-21T14:31:33.494Z,89.00
2023-10-21T14:34:08.249Z,89.84
2023-10-21T14:36:40.070Z,89.79
2023-10-21T14:39:12.115Z,90.04
2023-10-21T14:41:44.005Z,90.19
2023-10-21T14:44:15.974Z,90.00
2023-10-21T14:46:50.950Z,91.15
2023-10-21T14:49:25.291Z,91.66
2023-10-21T14:51:57.301Z,91.40
2023-10-21T14:54:33.940Z,92.12
2023-10-21T14:57:08.521Z,92.80
2023-10-21T14:59:40.571Z,92.63
2023-10-21T15:02:13.975Z,93.17
2023-10-21T15:04:47.644Z,93.36
2023-10-21T15:07:19.944Z,93.60
2023-10-21T15:09:51.794Z,94.14
2023-10-21T15:12:24.829Z,93.82
2023-10-21T15:14:59.831Z,93.92
2023-10-21T15:17:32.159Z,94.96
2023-10-21T15:20:08.723Z,94.50
2023-10-21T15:22:45.169Z,95.26
2023-10-21T15:25:20.661Z,95.69
2023-10-21T15:27:55.816Z,95.52
2023-10-21T15:30:27.765Z,95.07
2023-10-21T15:33:01.638Z,95.79
2023-10-21T15:35:33.578Z,96.58
2023-10-21T15:38:08.873Z,96.66
2023-10-21T15:40:40.694Z,96.61
2023-10-21T15:43:12.465Z,96.94
2023-10-21T15:45:44.351Z,97.56
2023-10-21T15:48:16.661Z,97.04
2023-10-21T15:50:48.525Z,97.37
2023-10-21T15:53:20.340Z,97.50
2023-10-21T15:55:52.237Z,98.27
2023-10-21T15:58:24.221Z,96.52
2023-10-21T16:00:56.270Z,97.14
2023-10-21T16:03:28.310Z,97.53
2023-10-21T16:06:00.270Z,97.08
2023-10-21T16:08:32.190Z,96.64
2023-10-21T16:11:06.039Z,96.29
2023-10-21T16:13:38.256Z,96.30
2023-10-21T16:16:10.631Z,96.29
2023-10-21T16:18:42.991Z,96.72
2023-10-21T16:21:15.612Z,96.43
2023-10-21T16:23:47.478Z,96.23
2023-10-21T16:26:21.297Z,96.37
2023-10-21T16:28:53.311Z,96.53
2023-10-21T16:31:25.402Z,95.60
2023-10-21T16:33:57.429Z,96.57
2023-10-21T16:36:29.421Z,96.06
2023-10-21T16:39:01.892Z,95.85
2023-10-21T16:41:33.805Z,96.40
2023-10-21T16:44:05.980Z,96.05
2023-10-21T16:46:42.117Z,96.35
2023-10-21T16:49:14.161Z,95.87
2023-10-21T16:51:46.195Z,95.67
2023-10-21T16:54:18.124Z,95.67
2023-10-21T16:56:50.527Z,96.71
2023-10-21T16:59:22.441Z,95.81
2023-10-21T17:01:54.311Z,94.76
2023-10-21T17:04:27.337Z,95.13
2023-10-21T17:06:59.289Z,95.59
2023-10-21T17:09:31.143Z,95.55
2023-10-21T17:12:03.114Z,95.28
2023-10-21T17:14:35.098Z,95.27
2023-10-21T17:17:07.060Z,95.84
2023-10-21T17:19:39.025Z,94.75
2023-10-21T17:22:10.964Z,96.91
2023-10-21T17:24:42.860Z,95.52
2023-10-21T17:27:14.837Z,96.25
2023-10-21T17:29:46.701Z,95.14
2023-10-21T17:32:18.471Z,95.71
2023-10-21T17:34:50.310Z,95.79
2023-10-21T17:37:22.130Z,96.16
2023-10-21T17:39:54.097Z,99.57
2023-10-21T17:42:25.967Z,96.72
2023-10-21T17:44:57.826Z,100.00
2023-10-21T17:47:29.744Z,100.00
2023-10-21T17:50:01.650Z,100.00
2023-10-21T17:52:33.544Z,100.00
2023-10-21T17:55:06.690Z,100.00
2023-10-21T17:57:39.978Z,99.92
2023-10-21T18:00:12.487Z,100.00
2023-10-21T18:02:44.754Z,99.10
2023-10-21T18:05:16.688Z,97.57
2023-10-21T18:07:48.587Z,98.54
2023-10-21T18:10:21.592Z,99.83
2023-10-21T18:12:53.467Z,99.36
2023-10-21T18:15:26.252Z,99.30
2023-10-21T18:17:58.121Z,99.38
2023-10-21T18:20:30.063Z,99.49
2023-10-21T18:23:02.234Z,99.21
2023-10-21T18:25:34.062Z,98.33
2023-10-21T18:28:06.005Z,100.00
2023-10-21T18:30:37.859Z,99.63
2023-10-21T18:33:09.843Z,99.10
2023-10-21T18:35:42.362Z,97.88
2023-10-21T18:38:14.316Z,98.96
2023-10-21T18:40:46.455Z,98.21
2023-10-21T18:43:18.385Z,99.82
2023-10-21T18:45:50.783Z,99.94
2023-10-21T18:48:22.794Z,99.24
2023-10-21T18:51:01.691Z,98.37
2023-10-21T18:53:33.555Z,97.70
2023-10-21T18:56:05.807Z,98.00
2023-10-21T18:58:37.619Z,97.44
2023-10-21T19:01:09.625Z,95.72
2023-10-21T19:03:41.867Z,95.44
2023-10-21T19:06:13.814Z,95.94
2023-10-21T19:08:45.671Z,97.28
2023-10-21T19:11:17.758Z,97.38
2023-10-21T19:13:49.707Z,97.98
2023-10-21T19:16:21.909Z,97.53
2023-10-21T19:18:53.820Z,97.33
2023-10-21T19:21:25.962Z,97.91
2023-10-21T19:23:59.947Z,98.29
2023-10-21T19:26:31.959Z,98.39
2023-10-21T19:29:05.676Z,97.30
2023-10-21T19:31:37.864Z,97.86
2023-10-21T19:34:11.553Z,97.20
2023-10-21T19:36:43.410Z,98.78
2023-10-21T19:39:16.581Z,99.30
2023-10-21T19:41:48.472Z,99.30
2023-10-21T19:44:26.654Z,99.43
2023-10-21T19:47:01.399Z,100.00
2023-10-21T19:49:33.626Z,100.00
2023-10-21T19:52:05.628Z,100.00
2023-10-21T19:54:37.748Z,100.00
2023-10-21T19:57:09.681Z,100.00
2023-10-21T19:59:41.525Z,100.00
2023-10-21T20:02:13.788Z,100.00
2023-10-21T20:04:45.793Z,100.00
2023-10-21T20:07:17.741Z,100.00
2023-10-21T20:09:49.887Z,100.00
2023-10-21T20:12:21.806Z,100.00
2023-10-21T20:14:53.832Z,99.83
2023-10-21T20:17:25.672Z,99.37
2023-10-21T20:19:59.472Z,99.76
2023-10-21T20:22:31.468Z,98.88
2023-10-21T20:25:03.388Z,98.82
2023-10-21T20:27:35.272Z,98.68
2023-10-21T20:30:07.550Z,98.32
2023-10-21T20:32:40.606Z,98.40
2023-10-21T20:35:31.380Z,98.08
2023-10-21T20:38:05.483Z,98.37
2023-10-21T20:40:37.352Z,97.95
2023-10-21T20:43:09.287Z,98.05
2023-10-21T20:45:41.153Z,98.37
2023-10-21T20:48:13.422Z,98.59
2023-10-21T20:50:45.918Z,98.36
2023-10-21T20:53:18.144Z,98.35
2023-10-21T20:55:50.120Z,99.21
2023-10-21T20:58:22.447Z,99.36
2023-10-21T21:00:55.524Z,98.79
2023-10-21T21:03:27.829Z,99.48
2023-10-21T21:05:59.806Z,99.35
2023-10-21T21:08:31.928Z,98.99
2023-10-21T21:11:03.808Z,98.97
2023-10-21T21:13:35.689Z,98.45
2023-10-21T21:16:07.719Z,98.94
2023-10-21T21:18:40.255Z,99.20
2023-10-21T21:21:12.178Z,98.58
2023-10-21T21:23:44.820Z,98.67
2023-10-21T21:26:16.572Z,98.63
2023-10-21T21:28:48.393Z,98.17
2023-10-21T21:31:20.188Z,98.22
2023-10-21T21:33:52.924Z,98.21
2023-10-21T21:36:24.878Z,98.01
2023-10-21T21:38:56.698Z,97.31
2023-10-21T21:41:28.495Z,97.58
2023-10-21T21:44:00.271Z,97.37
2023-10-21T21:46:32.126Z,98.24
2023-10-21T21:49:04.903Z,98.20
2023-10-21T21:51:36.915Z,98.83
2023-10-21T21:54:08.809Z,98.86
2023-10-21T21:56:40.573Z,98.81
2023-10-21T21:59:12.936Z,98.17
2023-10-21T22:01:44.772Z,97.64
2023-10-21T22:04:16.845Z,97.31
2023-10-21T22:06:50.898Z,97.22
2023-10-21T22:09:23.091Z,97.22
2023-10-21T22:11:54.930Z,97.04
2023-10-21T22:14:26.918Z,96.63
2023-10-21T22:16:58.848Z,96.16
2023-10-21T22:19:30.738Z,96.10
2023-10-21T22:22:02.620Z,96.39
2023-10-21T22:24:38.270Z,95.83
2023-10-21T22:27:17.024Z,96.10
2023-10-21T22:29:48.849Z,96.36
2023-10-21T22:32:20.768Z,96.39
2023-10-21T22:34:52.547Z,96.53
2023-10-21T22:37:24.386Z,97.14
2023-10-21T22:39:56.143Z,97.17
2023-10-21T22:42:27.906Z,97.43
2023-10-21T22:44:59.776Z,97.30
2023-10-21T22:47:34.120Z,98.60
2023-10-21T22:50:07.508Z,98.74
2023-10-21T22:52:40.636Z,98.40
2023-10-21T22:55:13.153Z,98.07
2023-10-21T22:57:45.961Z,98.04
2023-10-21T23:00:18.160Z,97.96
2023-10-21T23:02:50.770Z,97.46
2023-10-21T23:05:22.644Z,97.62
2023-10-21T23:08:01.875Z,97.52
2023-10-21T23:10:33.951Z,97.54
2023-10-21T23:13:05.716Z,98.24
2023-10-21T23:15:42.695Z,98.12
2023-10-21T23:18:15.183Z,98.37
2023-10-21T23:20:47.243Z,97.83
2023-10-21T23:23:20.492Z,97.48
2023-10-21T23:25:52.283Z,97.77
2023-10-21T23:28:25.857Z,97.14
2023-10-21T23:30:57.778Z,96.50
2023-10-21T23:33:29.675Z,96.74
2023-10-21T23:36:07.889Z,96.59
2023-10-21T23:38:41.814Z,96.35
2023-10-21T23:41:15.769Z,96.26
2023-10-21T23:43:48.455Z,96.05
2023-10-21T23:46:20.831Z,96.12
2023-10-21T23:48:54.231Z,96.15
2023-10-21T23:51:26.382Z,95.83
2023-10-21T23:53:58.471Z,96.01
2023-10-21T23:56:30.517Z,95.34
2023-10-21T23:59:02.527Z,95.69
